Time,TemperatureF,DewpointF,PressureIn,WindDirection,WindDirectionDegrees,WindSpeedMPH,WindSpeedGustMPH,Humidity,HourlyPrecipIn,Conditions,Clouds,dailyrainin,SoftwareType,DateUTC
2016-02-09 00:03:00,34.2,31.8,29.59,SW,226,2.0,6.0,91,0.00,,,0.00,meteobridge,2016-02-09 05:03:00,
2016-02-09 00:08:00,34.0,31.6,29.59,SW,217,0.0,4.0,91,0.00,,,0.00,meteobridge,2016-02-09 05:08:00,
2016-02-09 00:13:00,34.0,31.8,29.59,SW,232,0.0,2.0,92,0.00,,,0.00,meteobridge,2016-02-09 05:13:00,
2016-02-09 00:18:00,34.0,31.8,29.59,SW,233,2.0,3.0,92,0.00,,,0.00,meteobridge,2016-02-09 05:18:00,
2016-02-09 00:23:00,34.0,31.8,29.59,SW,224,0.0,4.0,92,0.00,,,0.00,meteobridge,2016-02-09 05:23:00,
2016-02-09 00:29:00,34.0,31.8,29.59,SW,236,0.0,3.0,92,0.00,,,0.00,meteobridge,2016-02-09 05:29:00,
2016-02-09 00:34:00,33.8,31.6,29.58,SW,227,0.0,4.0,92,0.00,,,0.00,meteobridge,2016-02-09 05:34:00,
2016-02-09 00:39:00,33.8,31.6,29.58,WSW,241,2.0,5.0,92,0.00,,,0.00,meteobridge,2016-02-09 05:39:00,
2016-02-09 00:44:00,33.8,31.6,29.58,SW,233,4.0,6.0,92,0.00,,,0.00,meteobridge,2016-02-09 05:44:00,
2016-02-09 00:59:00,33.6,31.5,29.58,SW,215,0.0,4.0,92,0.00,,,0.00,meteobridge,2016-02-09 05:59:00,
2016-02-09 01:04:00,33.6,31.8,29.57,SW,226,4.9,5.0,93,0.00,,,0.00,meteobridge,2016-02-09 06:04:00,
2016-02-09 01:09:00,33.6,31.5,29.58,SW,218,2.9,5.0,92,0.00,,,0.00,meteobridge,2016-02-09 06:09:00,
2016-02-09 01:14:00,33.4,31.3,29.57,SW,222,2.0,5.0,92,0.00,,,0.00,meteobridge,2016-02-09 06:14:00,
2016-02-09 01:19:00,33.4,31.6,29.57,SW,228,4.9,7.0,93,0.00,,,0.00,meteobridge,2016-02-09 06:19:00,
2016-02-09 01:24:00,33.4,31.6,29.57,SW,216,2.9,5.0,93,0.00,,,0.00,meteobridge,2016-02-09 06:24:00,
2016-02-09 01:34:00,33.4,31.6,29.57,SW,228,0.0,6.0,93,0.00,,,0.00,meteobridge,2016-02-09 06:34:00,
2016-02-09 01:39:00,33.4,31.6,29.57,SSW,212,2.0,6.0,93,0.00,,,0.00,meteobridge,2016-02-09 06:39:00,
2016-02-09 01:44:00,33.4,31.6,29.57,SW,233,4.9,5.0,93,0.00,,,0.00,meteobridge,2016-02-09 06:44:00,
2016-02-09 01:54:00,33.4,31.6,29.56,SW,235,2.0,5.0,93,0.00,,,0.00,meteobridge,2016-02-09 06:54:00,
2016-02-09 01:59:00,33.4,31.6,29.56,WSW,239,4.0,4.0,93,0.00,,,0.00,meteobridge,2016-02-09 06:59:00,
2016-02-09 02:04:00,33.3,31.5,29.56,SW,224,2.0,6.0,93,0.00,,,0.00,meteobridge,2016-02-09 07:04:00,
2016-02-09 02:09:00,33.3,31.5,29.56,SW,222,0.0,5.0,93,0.00,,,0.00,meteobridge,2016-02-09 07:09:00,
2016-02-09 02:14:00,33.3,31.6,29.56,SW,229,4.0,5.0,94,0.00,,,0.00,meteobridge,2016-02-09 07:14:00,
2016-02-09 02:19:00,33.3,31.6,29.56,SSW,213,2.0,5.0,94,0.00,,,0.00,meteobridge,2016-02-09 07:19:00,
2016-02-09 02:24:00,33.3,31.6,29.56,SW,220,0.9,5.0,94,0.00,,,0.00,meteobridge,2016-02-09 07:24:00,
2016-02-09 02:29:00,33.3,31.6,29.56,WSW,243,4.0,4.0,94,0.00,,,0.00,meteobridge,2016-02-09 07:29:00,
2016-02-09 02:34:00,33.3,31.6,29.56,SW,215,2.0,5.0,94,0.01,,,0.01,meteobridge,2016-02-09 07:34:00,
2016-02-09 02:39:00,33.1,31.5,29.55,SSW,211,4.9,5.0,94,0.01,,,0.01,meteobridge,2016-02-09 07:39:00,
2016-02-09 02:45:00,33.1,31.5,29.56,SW,227,2.9,7.0,94,0.01,,,0.01,meteobridge,2016-02-09 07:45:00,
2016-02-09 02:49:00,32.9,31.3,29.56,SSW,212,2.9,4.0,94,0.01,,,0.01,meteobridge,2016-02-09 07:49:00,
2016-02-09 02:55:00,32.9,31.3,29.56,SW,220,6.0,8.0,94,0.01,,,0.01,meteobridge,2016-02-09 07:55:00,
2016-02-09 03:00:00,32.7,31.1,29.56,SW,231,0.0,6.0,94,0.01,,,0.01,meteobridge,2016-02-09 08:00:00,
2016-02-09 03:05:00,32.7,31.1,29.56,SW,230,2.0,5.0,94,0.01,,,0.01,meteobridge,2016-02-09 08:05:00,
2016-02-09 03:10:00,32.7,31.1,29.56,SW,226,2.9,5.0,94,0.01,,,0.01,meteobridge,2016-02-09 08:10:00,
2016-02-09 03:15:00,32.5,30.9,29.55,SW,236,0.0,5.0,94,0.01,,,0.01,meteobridge,2016-02-09 08:15:00,
2016-02-09 03:20:00,32.5,31.3,29.55,SW,222,2.9,6.0,95,0.01,,,0.01,meteobridge,2016-02-09 08:20:00,
2016-02-09 03:25:00,32.5,31.3,29.55,SW,231,6.9,7.0,95,0.01,,,0.01,meteobridge,2016-02-09 08:25:00,
2016-02-09 03:30:00,32.5,31.3,29.55,SW,235,0.0,6.0,95,0.01,,,0.01,meteobridge,2016-02-09 08:30:00,
2016-02-09 03:35:00,32.5,31.3,29.55,SW,226,0.0,4.0,95,0.00,,,0.01,meteobridge,2016-02-09 08:35:00,
2016-02-09 03:40:00,32.4,31.1,29.55,SSW,210,0.0,7.0,95,0.00,,,0.01,meteobridge,2016-02-09 08:40:00,
2016-02-09 03:45:00,32.4,31.1,29.55,SSW,213,2.0,4.0,95,0.00,,,0.01,meteobridge,2016-02-09 08:45:00,
2016-02-09 03:50:00,32.4,31.1,29.55,WSW,251,0.9,4.0,95,0.00,,,0.01,meteobridge,2016-02-09 08:50:00,
2016-02-09 03:55:00,32.4,31.1,29.55,SW,222,0.0,3.0,95,0.00,,,0.01,meteobridge,2016-02-09 08:55:00,
2016-02-09 04:00:00,32.4,31.1,29.55,WSW,243,0.9,4.0,95,0.00,,,0.01,meteobridge,2016-02-09 09:00:00,
2016-02-09 04:05:00,32.4,31.1,29.54,WSW,243,0.9,3.0,95,0.00,,,0.01,meteobridge,2016-02-09 09:05:00,
2016-02-09 04:10:00,32.4,31.1,29.55,SW,222,4.0,5.0,95,0.00,,,0.01,meteobridge,2016-02-09 09:10:00,
2016-02-09 04:15:00,32.4,31.1,29.55,SW,220,2.0,4.0,95,0.00,,,0.01,meteobridge,2016-02-09 09:15:00,
2016-02-09 04:20:00,32.4,31.1,29.55,WSW,253,0.0,7.0,95,0.00,,,0.01,meteobridge,2016-02-09 09:20:00,
2016-02-09 04:25:00,32.4,31.3,29.55,WSW,258,0.9,8.0,96,0.00,,,0.01,meteobridge,2016-02-09 09:25:00,
2016-02-09 04:30:00,32.2,31.1,29.55,WSW,245,2.9,10.0,96,0.00,,,0.01,meteobridge,2016-02-09 09:30:00,
2016-02-09 04:35:00,31.8,30.6,29.55,West,262,4.0,9.0,95,0.00,,,0.01,meteobridge,2016-02-09 09:35:00,
2016-02-09 04:40:00,31.6,30.6,29.55,WNW,291,8.1,8.1,96,0.00,,,0.01,meteobridge,2016-02-09 09:40:00,
2016-02-09 04:46:00,31.6,30.4,29.55,West,263,4.9,9.0,95,0.00,,,0.01,meteobridge,2016-02-09 09:46:00,
2016-02-09 04:51:00,31.6,30.4,29.55,West,273,2.9,7.0,95,0.00,,,0.01,meteobridge,2016-02-09 09:51:00,
2016-02-09 05:01:00,31.5,30.2,29.56,West,280,4.0,9.0,95,0.00,,,0.01,meteobridge,2016-02-09 10:01:00,
2016-02-09 05:06:00,31.5,30.2,29.56,West,270,4.9,5.0,95,0.00,,,0.01,meteobridge,2016-02-09 10:06:00,
2016-02-09 05:11:00,31.5,30.2,29.56,West,277,2.0,6.0,95,0.00,,,0.01,meteobridge,2016-02-09 10:11:00,
2016-02-09 05:16:00,31.5,30.2,29.56,WNW,285,4.0,9.0,95,0.00,,,0.01,meteobridge,2016-02-09 10:16:00,
2016-02-09 05:26:00,31.3,30.0,29.56,WSW,247,4.0,8.0,95,0.00,,,0.01,meteobridge,2016-02-09 10:26:00,
2016-02-09 05:31:00,31.3,30.0,29.56,WSW,251,0.9,7.0,95,0.00,,,0.01,meteobridge,2016-02-09 10:31:00,
2016-02-09 05:36:00,31.3,30.0,29.56,WSW,250,2.9,3.0,95,0.00,,,0.01,meteobridge,2016-02-09 10:36:00,
2016-02-09 05:41:00,31.1,29.8,29.56,West,280,0.0,6.0,95,0.00,,,0.01,meteobridge,2016-02-09 10:41:00,
2016-02-09 05:46:00,31.1,29.8,29.56,WNW,302,0.0,3.0,95,0.00,,,0.01,meteobridge,2016-02-09 10:46:00,
2016-02-09 05:51:00,30.9,29.7,29.56,WNW,301,8.9,9.0,95,0.00,,,0.01,meteobridge,2016-02-09 10:51:00,
2016-02-09 06:01:00,30.6,29.3,29.57,WNW,294,6.9,8.0,95,0.00,,,0.01,meteobridge,2016-02-09 11:01:00,
2016-02-09 06:06:00,30.6,29.3,29.57,WNW,293,2.9,6.0,95,0.00,,,0.01,meteobridge,2016-02-09 11:06:00,
2016-02-09 06:11:00,30.6,29.3,29.57,WSW,241,6.0,6.0,95,0.00,,,0.01,meteobridge,2016-02-09 11:11:00,
2016-02-09 06:16:00,30.6,29.3,29.57,WSW,258,2.9,9.0,95,0.00,,,0.01,meteobridge,2016-02-09 11:16:00,
2016-02-09 06:21:00,30.6,29.3,29.57,WSW,238,4.9,8.0,95,0.00,,,0.01,meteobridge,2016-02-09 11:21:00,
2016-02-09 06:26:00,30.6,29.3,29.57,WSW,243,4.9,6.0,95,0.00,,,0.01,meteobridge,2016-02-09 11:26:00,
2016-02-09 06:37:00,30.4,29.1,29.58,WSW,237,8.1,13.0,95,0.00,,,0.01,meteobridge,2016-02-09 11:37:00,
2016-02-09 06:42:00,30.2,28.9,29.58,WSW,243,0.9,10.0,95,0.00,,,0.01,meteobridge,2016-02-09 11:42:00,
2016-02-09 06:52:00,30.0,28.8,29.58,WNW,290,0.9,13.0,95,0.00,,,0.01,meteobridge,2016-02-09 11:52:00,
2016-02-09 06:57:00,29.8,28.4,29.58,WNW,300,0.9,9.0,94,0.00,,,0.01,meteobridge,2016-02-09 11:57:00,
2016-02-09 07:02:00,29.8,28.6,29.58,WSW,258,6.9,10.0,95,0.00,,,0.01,meteobridge,2016-02-09 12:02:00,
2016-02-09 07:07:00,29.8,28.4,29.58,West,280,4.9,12.0,94,0.00,,,0.01,meteobridge,2016-02-09 12:07:00,
2016-02-09 07:12:00,29.7,28.2,29.59,West,259,8.1,11.0,94,0.00,,,0.01,meteobridge,2016-02-09 12:12:00,
2016-02-09 07:17:00,29.5,28.0,29.59,WSW,257,2.9,7.0,94,0.00,,,0.01,meteobridge,2016-02-09 12:17:00,
2016-02-09 07:22:00,29.5,28.0,29.59,West,278,2.9,5.0,94,0.00,,,0.01,meteobridge,2016-02-09 12:22:00,
2016-02-09 07:27:00,29.3,27.9,29.59,WSW,247,0.0,5.0,94,0.00,,,0.01,meteobridge,2016-02-09 12:27:00,
2016-02-09 07:32:00,29.3,27.9,29.59,WSW,256,0.0,5.0,94,0.00,,,0.01,meteobridge,2016-02-09 12:32:00,
2016-02-09 07:37:00,29.1,27.7,29.59,SW,236,0.9,6.0,94,0.00,,,0.01,meteobridge,2016-02-09 12:37:00,
2016-02-09 07:48:00,29.1,27.7,29.59,West,268,6.0,9.0,94,0.00,,,0.01,meteobridge,2016-02-09 12:48:00,
2016-02-09 07:53:00,28.9,27.5,29.60,WSW,254,0.0,7.0,94,0.00,,,0.01,meteobridge,2016-02-09 12:53:00,
2016-02-09 07:58:00,28.9,27.5,29.60,West,276,2.0,5.0,94,0.00,,,0.01,meteobridge,2016-02-09 12:58:00,
2016-02-09 08:08:00,28.9,27.5,29.60,West,259,0.9,9.0,94,0.00,,,0.01,meteobridge,2016-02-09 13:08:00,
2016-02-09 08:13:00,28.8,27.0,29.60,WSW,242,10.1,10.1,93,0.00,,,0.01,meteobridge,2016-02-09 13:13:00,
2016-02-09 08:18:00,28.8,27.3,29.60,West,272,4.0,8.0,94,0.00,,,0.01,meteobridge,2016-02-09 13:18:00,
2016-02-09 08:23:00,28.8,27.3,29.61,WSW,242,6.9,8.0,94,0.00,,,0.01,meteobridge,2016-02-09 13:23:00,
2016-02-09 08:28:00,28.6,27.1,29.61,SW,235,4.0,10.0,94,0.00,,,0.01,meteobridge,2016-02-09 13:28:00,
2016-02-09 08:33:00,28.6,27.1,29.61,WSW,251,4.9,7.0,94,0.00,,,0.01,meteobridge,2016-02-09 13:33:00,
2016-02-09 08:38:00,28.4,27.0,29.61,West,278,6.0,6.0,94,0.00,,,0.01,meteobridge,2016-02-09 13:38:00,
2016-02-09 08:43:00,28.4,27.0,29.62,West,267,2.0,6.0,94,0.00,,,0.01,meteobridge,2016-02-09 13:43:00,
2016-02-09 08:48:00,28.2,26.4,29.62,West,277,10.1,11.0,93,0.00,,,0.01,meteobridge,2016-02-09 13:48:00,
2016-02-09 08:53:00,28.0,26.2,29.62,West,263,4.9,9.0,93,0.00,,,0.01,meteobridge,2016-02-09 13:53:00,
2016-02-09 08:58:00,27.9,26.1,29.62,WSW,251,6.9,13.0,93,0.00,,,0.01,meteobridge,2016-02-09 13:58:00,
2016-02-09 09:03:00,27.9,26.1,29.62,WNW,289,6.0,11.0,93,0.00,,,0.01,meteobridge,2016-02-09 14:03:00,
2016-02-09 09:08:00,27.9,25.9,29.62,WSW,256,4.9,8.0,92,0.00,,,0.01,meteobridge,2016-02-09 14:08:00,
2016-02-09 09:13:00,27.9,25.9,29.62,SW,232,6.0,8.0,92,0.00,,,0.01,meteobridge,2016-02-09 14:13:00,
2016-02-09 09:18:00,28.0,26.1,29.62,West,271,4.9,9.0,92,0.00,,,0.01,meteobridge,2016-02-09 14:18:00,
2016-02-09 09:23:00,27.9,25.9,29.62,West,260,4.0,9.0,92,0.00,,,0.01,meteobridge,2016-02-09 14:23:00,
2016-02-09 09:33:00,27.9,25.9,29.62,WSW,244,4.0,8.0,92,0.00,,,0.01,meteobridge,2016-02-09 14:33:00,
2016-02-09 09:38:00,27.7,25.7,29.62,West,262,4.9,12.0,92,0.00,,,0.01,meteobridge,2016-02-09 14:38:00,
2016-02-09 09:43:00,27.7,25.3,29.63,WSW,255,6.9,8.0,91,0.00,,,0.01,meteobridge,2016-02-09 14:43:00,
2016-02-09 09:49:00,27.5,25.5,29.63,WSW,245,6.0,11.0,92,0.00,,,0.01,meteobridge,2016-02-09 14:49:00,
2016-02-09 09:59:00,27.7,25.7,29.63,West,271,6.0,9.0,92,0.00,,,0.01,meteobridge,2016-02-09 14:59:00,
2016-02-09 10:04:00,27.5,25.5,29.63,West,268,10.1,13.0,92,0.00,,,0.01,meteobridge,2016-02-09 15:04:00,
2016-02-09 10:14:00,27.1,24.8,29.63,West,265,4.9,16.0,91,0.00,,,0.01,meteobridge,2016-02-09 15:14:00,
2016-02-09 10:19:00,27.1,24.8,29.63,WSW,252,2.9,11.0,91,0.00,,,0.01,meteobridge,2016-02-09 15:19:00,
2016-02-09 10:24:00,27.1,24.8,29.63,WSW,253,4.9,13.0,91,0.00,,,0.01,meteobridge,2016-02-09 15:24:00,
2016-02-09 10:29:00,27.1,24.8,29.64,WSW,241,8.1,11.0,91,0.00,,,0.01,meteobridge,2016-02-09 15:29:00,
2016-02-09 10:39:00,27.0,24.4,29.64,West,274,2.9,11.0,90,0.00,,,0.01,meteobridge,2016-02-09 15:39:00,
2016-02-09 10:44:00,27.0,24.4,29.64,WSW,250,8.9,11.0,90,0.00,,,0.01,meteobridge,2016-02-09 15:44:00,
2016-02-09 10:54:00,27.0,24.4,29.64,WSW,256,8.9,12.0,90,0.00,,,0.01,meteobridge,2016-02-09 15:54:00,
2016-02-09 10:59:00,26.8,23.9,29.64,SW,233,8.1,14.0,89,0.00,,,0.01,meteobridge,2016-02-09 15:59:00,
2016-02-09 11:09:00,26.6,23.7,29.64,SW,236,11.0,11.0,89,0.00,,,0.01,meteobridge,2016-02-09 16:09:00,
2016-02-09 11:14:00,26.6,23.7,29.65,West,274,6.0,12.0,89,0.00,,,0.01,meteobridge,2016-02-09 16:14:00,
2016-02-09 11:19:00,26.8,23.9,29.65,West,265,4.9,14.0,89,0.00,,,0.01,meteobridge,2016-02-09 16:19:00,
2016-02-09 11:24:00,26.8,23.7,29.65,WSW,251,8.1,10.0,88,0.00,,,0.01,meteobridge,2016-02-09 16:24:00,
2016-02-09 11:30:00,26.8,23.7,29.65,WNW,285,6.0,14.0,88,0.00,,,0.01,meteobridge,2016-02-09 16:30:00,
2016-02-09 11:40:00,26.8,23.7,29.65,West,260,4.9,11.0,88,0.00,,,0.01,meteobridge,2016-02-09 16:40:00,
2016-02-09 11:45:00,26.8,23.7,29.65,West,268,4.9,10.0,88,0.00,,,0.01,meteobridge,2016-02-09 16:45:00,
2016-02-09 11:50:00,27.0,23.9,29.65,West,273,6.9,17.0,88,0.00,,,0.01,meteobridge,2016-02-09 16:50:00,